Darstellungsparameter: Aktuell verwendete Einstellungen:
Skalierung der Graphiken ... ?
xyx+y,   Skalierungsfaktor:      Skalierung: Modus: x, Faktor: 1
Darstellungszeitraum ... ?
Vom - - bis: - -   Zeitraum: 10.04.2015 - 10.04.2015
Min/Max/Avg-Anzeige ... ?
Zeige MMA aktuell
Zeige MMA Monat
Zeige MMA alles
Zeige --A aktuell
Zeige --A Monat
Zeige --A alles
Keine MMA-Anzeige
MMA:
Minimum Maximum Average (ber die Originaldaten)
MMA-Basis: 10.04.2015 - 10.04.2015
Quicknavigation für Darstellung... ?
Tage:      1T, 2T, 3T, 5T -1T -2T -3T -5T +1T +2T +3T +5T
Wochen: 1W, 2W, 3W -1W -2W -3W +1W +2W +3W
Monate: 1M, 3M, 6M -1M -3M -6M +1M +3M +6M
Jahre:    1J, 3J, 5J, 10J -1J -3J -5J -10J +1J +3J +5J +10J
Nutze für die Darstellung ... ?
Originaldaten oder Mittelwerte auf ...
Stundenbasis Tagesbasis Wochenbasis
Monatsbasis Jahresbasis      Datenbasis: Original-Daten
Darstellen als:
Statistik (Auto) Statistik J:M      Darstellung:
Zur Graphik,    zurück zur Übersicht aller Sensoren.
 
Tabellarische Datenbersicht: ?
 
Sensor: Nr:Datum:Temp:Abs-Feuchte:Windchill:Wind:
Aussen-T/F 1 10-04-2015 00:00:00 10.2 C 7.8 g/m*3 10.2 C 0 km/h
2 10-04-2015 00:05:00 10 C 7.8 g/m*3 10 C 0 km/h
3 10-04-2015 00:10:00 9.9 C 7.84 g/m*3 9.9 C 1.6 km/h
4 10-04-2015 00:15:00 9.8 C 7.89 g/m*3 9.8 C 0 km/h
5 10-04-2015 00:20:00 9.8 C 7.89 g/m*3 9.8 C 0 km/h
6 10-04-2015 00:25:00 9.7 C 7.74 g/m*3 9.7 C 0 km/h
7 10-04-2015 00:30:00 9.7 C 7.74 g/m*3 9.7 C 0 km/h
8 10-04-2015 00:35:00 9.6 C 7.69 g/m*3 9.6 C 0 km/h
9 10-04-2015 00:40:00 9.6 C 7.6 g/m*3 9.6 C 0 km/h
10 10-04-2015 00:45:00 9.4 C 7.6 g/m*3 9.4 C 0 km/h
11 10-04-2015 00:50:00 9.3 C 7.64 g/m*3 9.3 C 0 km/h
12 10-04-2015 00:55:00 9.2 C 7.59 g/m*3 9.2 C 0 km/h
13 10-04-2015 01:00:00 9.1 C 7.54 g/m*3 9.1 C 0 km/h
14 10-04-2015 01:05:00 9 C 7.49 g/m*3 9 C 0 km/h
15 10-04-2015 01:10:00 8.9 C 7.53 g/m*3 8.9 C 0 km/h
16 10-04-2015 01:15:00 8.8 C 7.49 g/m*3 8.8 C 0 km/h
17 10-04-2015 01:20:00 8.7 C 7.52 g/m*3 8.7 C 0 km/h
18 10-04-2015 01:25:00 8.7 C 7.52 g/m*3 8.7 C 0 km/h
19 10-04-2015 01:30:00 8.6 C 7.39 g/m*3 8.6 C 0 km/h
20 10-04-2015 01:35:00 8.5 C 7.43 g/m*3 8.5 C 0 km/h
21 10-04-2015 01:40:00 8.4 C 7.38 g/m*3 8.4 C 0 km/h
22 10-04-2015 01:45:00 8.4 C 7.38 g/m*3 8.4 C 0 km/h
23 10-04-2015 01:50:00 8.3 C 7.33 g/m*3 8.3 C 0 km/h
24 10-04-2015 01:55:00 8.3 C 7.33 g/m*3 8.3 C 0 km/h
25 10-04-2015 02:00:00 8.1 C 7.32 g/m*3 8.1 C 0 km/h
Sensor: Nr:Datum:Temp:Abs-Feuchte:Windchill:Wind:
Aussen-T/F 26 10-04-2015 02:05:00 8.1 C 7.32 g/m*3 8.1 C 0 km/h
27 10-04-2015 02:10:00 8.1 C 7.32 g/m*3 8.1 C 0 km/h
28 10-04-2015 02:15:00 7.9 C 7.23 g/m*3 7.9 C 0 km/h
29 10-04-2015 02:20:00 7.8 C 7.18 g/m*3 7.8 C 0 km/h
30 10-04-2015 02:25:00 7.6 C 7.17 g/m*3 7.6 C 0 km/h
31 10-04-2015 02:30:00 7.6 C 7.25 g/m*3 7.6 C 0 km/h
32 10-04-2015 02:35:00 7.6 C 7.25 g/m*3 7.6 C 0 km/h
33 10-04-2015 02:40:00 7.5 C 7.2 g/m*3 7.5 C 1.6 km/h
34 10-04-2015 02:45:00 7.5 C 7.2 g/m*3 7.5 C 0 km/h
35 10-04-2015 02:50:00 7.4 C 7.08 g/m*3 7.4 C 0 km/h
36 10-04-2015 02:55:00 7.3 C 7.11 g/m*3 7.3 C 0 km/h
37 10-04-2015 03:00:00 7.3 C 7.11 g/m*3 7.3 C 0 km/h
38 10-04-2015 03:05:00 7.3 C 7.11 g/m*3 7.3 C 0 km/h
39 10-04-2015 03:10:00 7.2 C 7.06 g/m*3 7.2 C 0 km/h
40 10-04-2015 03:15:00 7.1 C 7.02 g/m*3 7.1 C 0 km/h
41 10-04-2015 03:20:00 7.1 C 7.02 g/m*3 7.1 C 0 km/h
42 10-04-2015 03:25:00 6.9 C 7.01 g/m*3 6.9 C 0 km/h
43 10-04-2015 03:30:00 6.9 C 7.01 g/m*3 6.9 C 0 km/h
44 10-04-2015 03:35:00 6.8 C 6.96 g/m*3 6.8 C 0 km/h
45 10-04-2015 03:40:00 6.7 C 6.91 g/m*3 6.7 C 0 km/h
46 10-04-2015 03:45:00 6.6 C 6.87 g/m*3 6.6 C 0 km/h
47 10-04-2015 03:50:00 6.5 C 6.82 g/m*3 6.5 C 0 km/h
48 10-04-2015 03:55:00 6.4 C 6.85 g/m*3 6.4 C 0 km/h
49 10-04-2015 04:00:00 6.4 C 6.85 g/m*3 6.4 C 0 km/h
50 10-04-2015 04:05:00 6.3 C 6.81 g/m*3 6.3 C 0 km/h
Sensor: Nr:Datum:Temp:Abs-Feuchte:Windchill:Wind:
Aussen-T/F 51 10-04-2015 04:10:00 6.3 C 6.81 g/m*3 6.3 C 0 km/h
52 10-04-2015 04:15:00 6.3 C 6.81 g/m*3 6.3 C 0 km/h
53 10-04-2015 04:20:00 6.3 C 6.88 g/m*3 6.3 C 0 km/h
54 10-04-2015 04:25:00 6.3 C 6.88 g/m*3 6.3 C 0 km/h
55 10-04-2015 04:30:00 6.3 C 6.88 g/m*3 6.3 C 0 km/h
56 10-04-2015 04:35:00 6.2 C 6.84 g/m*3 6.2 C 0 km/h
57 10-04-2015 04:40:00 6.1 C 6.79 g/m*3 6.1 C 0 km/h
58 10-04-2015 04:45:00 6.1 C 6.79 g/m*3 6.1 C 0 km/h
59 10-04-2015 04:50:00 6 C 6.75 g/m*3 6 C 0 km/h
60 10-04-2015 04:55:00 5.9 C 6.71 g/m*3 5.9 C 0 km/h
61 10-04-2015 05:00:00 5.7 C 6.62 g/m*3 5.7 C 1.6 km/h
62 10-04-2015 05:05:00 5.7 C 6.62 g/m*3 5.7 C 0 km/h
63 10-04-2015 05:10:00 5.7 C 6.62 g/m*3 5.7 C 0 km/h
64 10-04-2015 05:15:00 5.6 C 6.57 g/m*3 5.6 C 0 km/h
65 10-04-2015 05:20:00 5.6 C 6.65 g/m*3 5.6 C 0 km/h
66 10-04-2015 05:25:00 5.5 C 6.6 g/m*3 5.5 C 0 km/h
67 10-04-2015 05:30:00 5.4 C 6.56 g/m*3 5.4 C 0 km/h
68 10-04-2015 05:35:00 5.4 C 6.56 g/m*3 5.4 C 0 km/h
69 10-04-2015 05:40:00 5.4 C 6.56 g/m*3 5.4 C 1.6 km/h
70 10-04-2015 05:45:00 5.4 C 6.56 g/m*3 5.4 C 0 km/h
71 10-04-2015 05:50:00 5.3 C 6.52 g/m*3 5.3 C 0 km/h
72 10-04-2015 05:55:00 5.2 C 6.47 g/m*3 5.2 C 0 km/h
73 10-04-2015 06:00:00 5.1 C 6.43 g/m*3 5.1 C 0 km/h
74 10-04-2015 06:05:00 5.2 C 6.47 g/m*3 5.2 C 1.6 km/h
75 10-04-2015 06:10:00 5.3 C 6.58 g/m*3 5.3 C 0 km/h
Sensor: Nr:Datum:Temp:Abs-Feuchte:Windchill:Wind:
Aussen-T/F 76 10-04-2015 06:15:00 5.3 C 6.58 g/m*3 5.3 C 0 km/h
77 10-04-2015 06:20:00 5.3 C 6.58 g/m*3 5.3 C 0 km/h
78 10-04-2015 06:25:00 5.2 C 6.47 g/m*3 5.2 C 0 km/h
79 10-04-2015 06:30:00 5.1 C 6.43 g/m*3 5.1 C 0 km/h
80 10-04-2015 06:35:00 5 C 6.39 g/m*3 5 C 0 km/h
81 10-04-2015 06:40:00 4.8 C 6.3 g/m*3 4.8 C 0 km/h
82 10-04-2015 06:45:00 4.8 C 6.3 g/m*3 4.8 C 0 km/h
83 10-04-2015 06:50:00 4.7 C 6.26 g/m*3 4.7 C 0 km/h
84 10-04-2015 06:55:00 4.7 C 6.33 g/m*3 4.7 C 0 km/h
85 10-04-2015 07:00:00 4.7 C 6.33 g/m*3 4.7 C 0 km/h
86 10-04-2015 07:05:00 4.7 C 6.33 g/m*3 4.7 C 0 km/h
87 10-04-2015 07:10:00 4.7 C 6.33 g/m*3 4.7 C 0 km/h
88 10-04-2015 07:15:00 4.7 C 6.33 g/m*3 4.7 C 0 km/h
89 10-04-2015 07:20:00 4.7 C 6.33 g/m*3 4.7 C 0 km/h
90 10-04-2015 07:25:00 4.7 C 6.33 g/m*3 4.7 C 0 km/h
91 10-04-2015 07:30:00 4.7 C 6.33 g/m*3 4.7 C 0 km/h
92 10-04-2015 07:35:00 4.7 C 6.33 g/m*3 4.7 C 0 km/h
93 10-04-2015 07:40:00 4.6 C 6.29 g/m*3 4.6 C 0 km/h
94 10-04-2015 07:45:00 4.6 C 6.29 g/m*3 4.6 C 0 km/h
95 10-04-2015 07:50:00 4.7 C 6.33 g/m*3 4.7 C 0 km/h
96 10-04-2015 07:55:00 4.7 C 6.39 g/m*3 4.7 C 0 km/h
97 10-04-2015 08:00:00 4.8 C 6.44 g/m*3 4.8 C 0 km/h
98 10-04-2015 08:05:00 4.8 C 6.44 g/m*3 4.8 C 0 km/h
99 10-04-2015 08:10:00 4.8 C 6.44 g/m*3 4.8 C 0 km/h
100 10-04-2015 08:15:00 4.9 C 6.48 g/m*3 4.9 C 0 km/h
Sensor: Nr:Datum:Temp:Abs-Feuchte:Windchill:Wind:
Aussen-T/F 101 10-04-2015 08:20:00 5.1 C 6.57 g/m*3 5.1 C 0 km/h
102 10-04-2015 08:25:00 5.2 C 6.61 g/m*3 5.2 C 0 km/h
103 10-04-2015 08:30:00 5.2 C 6.61 g/m*3 5.2 C 0 km/h
104 10-04-2015 08:35:00 5.3 C 6.65 g/m*3 5.3 C 0 km/h
105 10-04-2015 08:40:00 5.4 C 6.7 g/m*3 5.4 C 0 km/h
106 10-04-2015 08:45:00 5.6 C 6.79 g/m*3 5.6 C 0 km/h
107 10-04-2015 08:50:00 5.7 C 6.83 g/m*3 5.7 C 0 km/h
108 10-04-2015 08:55:00 5.8 C 6.88 g/m*3 5.8 C 1.6 km/h
109 10-04-2015 09:00:00 5.9 C 6.92 g/m*3 5.9 C 0 km/h
110 10-04-2015 09:05:00 6 C 6.9 g/m*3 6 C 0 km/h
111 10-04-2015 09:10:00 6 C 6.9 g/m*3 6 C 0 km/h
112 10-04-2015 09:15:00 6.1 C 6.94 g/m*3 6.1 C 0 km/h
113 10-04-2015 09:20:00 6.2 C 6.99 g/m*3 6.2 C 0 km/h
114 10-04-2015 09:25:00 6.3 C 7.03 g/m*3 6.3 C 0 km/h
115 10-04-2015 09:30:00 6.6 C 7.17 g/m*3 6.6 C 0 km/h
116 10-04-2015 09:35:00 6.8 C 7.27 g/m*3 6.8 C 0 km/h
117 10-04-2015 09:40:00 7 C 7.36 g/m*3 7 C 0 km/h
118 10-04-2015 09:45:00 7.3 C 7.51 g/m*3 7.3 C 0 km/h
119 10-04-2015 09:50:00 7.6 C 7.57 g/m*3 7.6 C 0 km/h
120 10-04-2015 09:55:00 7.8 C 7.59 g/m*3 7.8 C 0 km/h
121 10-04-2015 10:00:00 8.1 C 7.74 g/m*3 8.1 C 0 km/h
122 10-04-2015 10:05:00 8.3 C 7.84 g/m*3 8.3 C 0 km/h
123 10-04-2015 10:10:00 8.6 C 7.91 g/m*3 8.6 C 0 km/h
124 10-04-2015 10:15:00 8.9 C 8.06 g/m*3 8.9 C 0 km/h
125 10-04-2015 10:20:00 9.1 C 8.07 g/m*3 9.1 C 0 km/h
Sensor: Nr:Datum:Temp:Abs-Feuchte:Windchill:Wind:
Aussen-T/F 126 10-04-2015 10:25:00 9.4 C 8.05 g/m*3 9.4 C 0 km/h
127 10-04-2015 10:30:00 9.7 C 8.11 g/m*3 9.7 C 0 km/h
128 10-04-2015 10:35:00 10 C 8.17 g/m*3 10 C 0 km/h
129 10-04-2015 10:40:00 10.3 C 8.33 g/m*3 10.3 C 0 km/h
130 10-04-2015 10:45:00 10.6 C 8.39 g/m*3 10.6 C 0 km/h
131 10-04-2015 10:50:00 10.9 C 8.45 g/m*3 10.9 C 0 km/h
132 10-04-2015 10:55:00 11.2 C 8.51 g/m*3 11.2 C 0 km/h
133 10-04-2015 11:00:00 11.4 C 8.62 g/m*3 11.4 C 0 km/h
134 10-04-2015 11:05:00 11.8 C 8.63 g/m*3 11.8 C 0 km/h
135 10-04-2015 11:10:00 12.2 C 8.74 g/m*3 12.2 C 0 km/h
136 10-04-2015 11:15:00 12.5 C 8.36 g/m*3 12.5 C 0 km/h
137 10-04-2015 11:20:00 12.9 C 8.57 g/m*3 12.9 C 0 km/h
138 10-04-2015 11:25:00 13.4 C 8.83 g/m*3 13.4 C 0 km/h
139 10-04-2015 11:30:00 13.8 C 8.94 g/m*3 13.8 C 0 km/h
140 10-04-2015 11:35:00 14.2 C 9.16 g/m*3 14.2 C 1.6 km/h
141 10-04-2015 11:40:00 14.6 C 9.13 g/m*3 14.6 C 0 km/h
142 10-04-2015 11:45:00 14.8 C 9.12 g/m*3 14.8 C 0 km/h
143 10-04-2015 11:50:00 15.1 C 9.42 g/m*3 15.1 C 1.6 km/h
144 10-04-2015 11:55:00 15.4 C 9.07 g/m*3 15.4 C 3.2 km/h
145 10-04-2015 12:00:00 15.8 C 9.42 g/m*3 15.8 C 1.6 km/h
146 10-04-2015 12:05:00 16.2 C 9.38 g/m*3 16.2 C 4.8 km/h
147 10-04-2015 12:10:00 16.4 C 9.21 g/m*3 16.4 C 3.2 km/h
148 10-04-2015 12:15:00 16.8 C 9.01 g/m*3 16.8 C 3.2 km/h
149 10-04-2015 12:20:00 17.1 C 9.03 g/m*3 17.1 C 3.2 km/h
150 10-04-2015 12:25:00 17.3 C 9.13 g/m*3 17.3 C 1.6 km/h
Sensor: Nr:Datum:Temp:Abs-Feuchte:Windchill:Wind:
Aussen-T/F 151 10-04-2015 12:30:00 17.6 C 9.15 g/m*3 17.6 C 3.2 km/h
152 10-04-2015 12:35:00 17.8 C 9.11 g/m*3 17.8 C 1.6 km/h
153 10-04-2015 12:40:00 18.1 C 9.43 g/m*3 18.1 C 1.6 km/h
154 10-04-2015 12:45:00 18.4 C 9.44 g/m*3 18.4 C 3.2 km/h
155 10-04-2015 12:50:00 18.9 C 8.75 g/m*3 18.9 C 3.2 km/h
156 10-04-2015 12:55:00 19.3 C 8.29 g/m*3 19.3 C 1.6 km/h
157 10-04-2015 13:00:00 19.9 C 8.42 g/m*3 19.9 C 4.8 km/h
158 10-04-2015 13:05:00 20.3 C 8.97 g/m*3 20.3 C 4.8 km/h
159 10-04-2015 13:10:00 20.8 C 9.23 g/m*3 20.8 C 6.4 km/h
160 10-04-2015 13:15:00 21.1 C 8.11 g/m*3 21.1 C 6.4 km/h
161 10-04-2015 13:20:00 21.3 C 8.02 g/m*3 21.3 C 3.2 km/h
162 10-04-2015 13:25:00 21.4 C 8.25 g/m*3 21.4 C 6.4 km/h
163 10-04-2015 13:30:00 21.6 C 8.72 g/m*3 21.6 C 6.4 km/h
164 10-04-2015 13:35:00 21.9 C 8.3 g/m*3 21.9 C 8.1 km/h
165 10-04-2015 13:40:00 22.1 C 8 g/m*3 22.1 C 6.4 km/h
166 10-04-2015 13:45:00 22.2 C 8.25 g/m*3 22.2 C 6.4 km/h
167 10-04-2015 13:50:00 22.3 C 8.49 g/m*3 22.3 C 8.1 km/h
168 10-04-2015 13:55:00 22.3 C 8.89 g/m*3 22.3 C 8.1 km/h
169 10-04-2015 14:00:00 22.7 C 8.49 g/m*3 22.7 C 3.2 km/h
170 10-04-2015 14:05:00 23 C 8.43 g/m*3 23 C 8.1 km/h
171 10-04-2015 14:10:00 23 C 7.81 g/m*3 23 C 4.8 km/h
172 10-04-2015 14:15:00 23.1 C 8.06 g/m*3 23.1 C 6.4 km/h
173 10-04-2015 14:20:00 23.1 C 8.68 g/m*3 23.1 C 6.4 km/h
174 10-04-2015 14:25:00 23 C 7.81 g/m*3 23 C 6.4 km/h
175 10-04-2015 14:30:00 23.1 C 7.65 g/m*3 23.1 C 8.1 km/h
Sensor: Nr:Datum:Temp:Abs-Feuchte:Windchill:Wind:
Aussen-T/F 176 10-04-2015 14:35:00 23.1 C 7.23 g/m*3 23.1 C 9.7 km/h
177 10-04-2015 14:40:00 23.1 C 7.03 g/m*3 23.1 C 9.7 km/h
178 10-04-2015 14:45:00 23.1 C 8.48 g/m*3 23.1 C 4.8 km/h
179 10-04-2015 14:50:00 23.3 C 7.32 g/m*3 23.3 C 4.8 km/h
180 10-04-2015 14:55:00 23.3 C 7.11 g/m*3 23.3 C 9.7 km/h
181 10-04-2015 15:00:00 23.3 C 6.9 g/m*3 23.3 C 9.7 km/h
182 10-04-2015 15:05:00 23.4 C 6.73 g/m*3 23.4 C 14.5 km/h
183 10-04-2015 15:10:00 23.4 C 6.73 g/m*3 23.4 C 9.7 km/h
184 10-04-2015 15:15:00 23.6 C 6.59 g/m*3 23.6 C 8.1 km/h
185 10-04-2015 15:20:00 23.6 C 6.59 g/m*3 23.6 C 14.5 km/h
186 10-04-2015 15:25:00 23.6 C 6.38 g/m*3 23.6 C 11.3 km/h
187 10-04-2015 15:30:00 23.6 C 6.38 g/m*3 23.6 C 12.9 km/h
188 10-04-2015 15:35:00 23.6 C 7.23 g/m*3 23.6 C 12.9 km/h
189 10-04-2015 15:40:00 23.8 C 6.67 g/m*3 23.8 C 6.4 km/h
190 10-04-2015 15:45:00 23.9 C 6.49 g/m*3 23.9 C 8.1 km/h
191 10-04-2015 15:50:00 24.1 C 6.13 g/m*3 24.1 C 9.7 km/h
192 10-04-2015 15:55:00 24.3 C 6.2 g/m*3 24.3 C 9.7 km/h
193 10-04-2015 16:00:00 24.3 C 6.64 g/m*3 24.3 C 11.3 km/h
194 10-04-2015 16:05:00 24.4 C 6.23 g/m*3 24.4 C 6.4 km/h
195 10-04-2015 16:10:00 24.7 C 6.79 g/m*3 24.7 C 9.7 km/h
196 10-04-2015 16:15:00 24.9 C 7.55 g/m*3 24.9 C 4.8 km/h
197 10-04-2015 16:20:00 24.8 C 6.15 g/m*3 24.8 C 9.7 km/h
198 10-04-2015 16:25:00 24.6 C 5.63 g/m*3 24.6 C 11.3 km/h
199 10-04-2015 16:30:00 24.6 C 6.08 g/m*3 24.6 C 8.1 km/h
200 10-04-2015 16:35:00 24.7 C 5.88 g/m*3 24.7 C 4.8 km/h
Sensor: Nr:Datum:Temp:Abs-Feuchte:Windchill:Wind:
Aussen-T/F 201 10-04-2015 16:40:00 24.5 C 6.04 g/m*3 24.5 C 9.7 km/h
202 10-04-2015 16:45:00 24.4 C 5.79 g/m*3 24.4 C 11.3 km/h
203 10-04-2015 16:50:00 24.5 C 6.27 g/m*3 24.5 C 8.1 km/h
204 10-04-2015 16:55:00 24.7 C 6.11 g/m*3 24.7 C 8.1 km/h
205 10-04-2015 17:00:00 24.5 C 5.82 g/m*3 24.5 C 9.7 km/h
206 10-04-2015 17:05:00 24.4 C 6.23 g/m*3 24.4 C 6.4 km/h
207 10-04-2015 17:10:00 24.4 C 6.23 g/m*3 24.4 C 8.1 km/h
208 10-04-2015 17:15:00 24.6 C 5.63 g/m*3 24.6 C 12.9 km/h
209 10-04-2015 17:20:00 24.6 C 6.08 g/m*3 24.6 C 11.3 km/h
210 10-04-2015 17:25:00 24.7 C 5.43 g/m*3 24.7 C 14.5 km/h
211 10-04-2015 17:30:00 24.6 C 5.4 g/m*3 24.6 C 9.7 km/h
212 10-04-2015 17:35:00 24.4 C 5.34 g/m*3 24.4 C 4.8 km/h
213 10-04-2015 17:40:00 24.3 C 5.53 g/m*3 24.3 C 9.7 km/h
214 10-04-2015 17:45:00 24.1 C 5.25 g/m*3 24.1 C 9.7 km/h
215 10-04-2015 17:50:00 24 C 5.87 g/m*3 24 C 6.4 km/h
216 10-04-2015 17:55:00 24 C 5.66 g/m*3 24 C 6.4 km/h
217 10-04-2015 18:00:00 24.1 C 5.91 g/m*3 24.1 C 8.1 km/h
218 10-04-2015 18:05:00 24.2 C 5.94 g/m*3 24.2 C 11.3 km/h
219 10-04-2015 18:10:00 24.1 C 5.91 g/m*3 24.1 C 4.8 km/h
220 10-04-2015 18:15:00 24.1 C 5.25 g/m*3 24.1 C 3.2 km/h
221 10-04-2015 18:20:00 24.1 C 5.91 g/m*3 24.1 C 6.4 km/h
222 10-04-2015 18:25:00 23.9 C 5.62 g/m*3 23.9 C 6.4 km/h
223 10-04-2015 18:30:00 23.4 C 6.1 g/m*3 23.4 C 3.2 km/h
224 10-04-2015 18:35:00 22.8 C 5.69 g/m*3 22.8 C 6.4 km/h
225 10-04-2015 18:40:00 22.3 C 6.12 g/m*3 22.3 C 4.8 km/h
Sensor: Nr:Datum:Temp:Abs-Feuchte:Windchill:Wind:
Aussen-T/F 226 10-04-2015 18:45:00 21.6 C 7.59 g/m*3 21.6 C 1.6 km/h
227 10-04-2015 18:50:00 20.9 C 6.37 g/m*3 20.9 C 1.6 km/h
228 10-04-2015 18:55:00 20.6 C 7.7 g/m*3 20.6 C 3.2 km/h
229 10-04-2015 19:00:00 19.9 C 7.73 g/m*3 19.9 C 1.6 km/h
230 10-04-2015 19:05:00 19.4 C 7.67 g/m*3 19.4 C 3.2 km/h
231 10-04-2015 19:10:00 18.9 C 7.78 g/m*3 18.9 C 4.8 km/h
232 10-04-2015 19:15:00 18.6 C 7.48 g/m*3 18.6 C 4.8 km/h
233 10-04-2015 19:20:00 18.4 C 7.55 g/m*3 18.4 C 3.2 km/h
234 10-04-2015 19:25:00 18.2 C 7.93 g/m*3 18.2 C 3.2 km/h
235 10-04-2015 19:30:00 18.1 C 7.73 g/m*3 18.1 C 4.8 km/h
236 10-04-2015 19:35:00 17.8 C 7.74 g/m*3 17.8 C 6.4 km/h
237 10-04-2015 19:40:00 17.7 C 7.69 g/m*3 17.7 C 4.8 km/h
238 10-04-2015 19:45:00 17.4 C 7.71 g/m*3 17.4 C 3.2 km/h
239 10-04-2015 19:50:00 17.1 C 7.57 g/m*3 17.1 C 4.8 km/h
240 10-04-2015 19:55:00 16.8 C 7.58 g/m*3 16.8 C 4.8 km/h
241 10-04-2015 20:00:00 16.6 C 7.63 g/m*3 16.6 C 6.4 km/h
242 10-04-2015 20:05:00 16.3 C 7.63 g/m*3 16.3 C 8.1 km/h
243 10-04-2015 20:10:00 16 C 7.49 g/m*3 16 C 6.4 km/h
244 10-04-2015 20:15:00 15.7 C 7.36 g/m*3 15.7 C 6.4 km/h
245 10-04-2015 20:20:00 15.4 C 7.36 g/m*3 15.4 C 6.4 km/h
246 10-04-2015 20:25:00 15.2 C 7.27 g/m*3 15.2 C 4.8 km/h
247 10-04-2015 20:30:00 15 C 7.44 g/m*3 15 C 4.8 km/h
248 10-04-2015 20:35:00 14.8 C 7.22 g/m*3 14.8 C 6.4 km/h
249 10-04-2015 20:40:00 14.7 C 7.43 g/m*3 14.7 C 8.1 km/h
250 10-04-2015 20:45:00 14.5 C 7.34 g/m*3 14.5 C 6.4 km/h
Sensor: Nr:Datum:Temp:Abs-Feuchte:Windchill:Wind:
Aussen-T/F 251 10-04-2015 20:50:00 14.4 C 7.42 g/m*3 14.4 C 4.8 km/h
252 10-04-2015 20:55:00 14.3 C 7.37 g/m*3 14.3 C 6.4 km/h
253 10-04-2015 21:00:00 14.2 C 7.2 g/m*3 14.2 C 6.4 km/h
254 10-04-2015 21:05:00 14.1 C 7.28 g/m*3 14.1 C 3.2 km/h
255 10-04-2015 21:10:00 14 C 7.12 g/m*3 14 C 6.4 km/h
256 10-04-2015 21:15:00 13.9 C 7.31 g/m*3 13.9 C 6.4 km/h
257 10-04-2015 21:20:00 13.7 C 7.1 g/m*3 13.7 C 3.2 km/h
258 10-04-2015 21:25:00 13.6 C 6.94 g/m*3 13.6 C 4.8 km/h
259 10-04-2015 21:30:00 13.6 C 6.83 g/m*3 13.6 C 6.4 km/h
260 10-04-2015 21:35:00 13.6 C 7.06 g/m*3 13.6 C 4.8 km/h
261 10-04-2015 21:40:00 13.3 C 6.93 g/m*3 13.3 C 6.4 km/h
262 10-04-2015 21:45:00 13.2 C 6.89 g/m*3 13.2 C 6.4 km/h
263 10-04-2015 21:50:00 13.1 C 6.85 g/m*3 13.1 C 4.8 km/h
264 10-04-2015 21:55:00 13.1 C 6.96 g/m*3 13.1 C 4.8 km/h
265 10-04-2015 22:00:00 12.9 C 6.76 g/m*3 12.9 C 4.8 km/h
266 10-04-2015 22:05:00 12.8 C 6.83 g/m*3 12.8 C 4.8 km/h
267 10-04-2015 22:10:00 12.6 C 6.86 g/m*3 12.6 C 3.2 km/h
268 10-04-2015 22:15:00 12.4 C 6.88 g/m*3 12.4 C 3.2 km/h
269 10-04-2015 22:20:00 12.3 C 6.95 g/m*3 12.3 C 1.6 km/h
270 10-04-2015 22:25:00 12.2 C 6.47 g/m*3 12.2 C 4.8 km/h
271 10-04-2015 22:30:00 12.2 C 6.69 g/m*3 12.2 C 4.8 km/h
272 10-04-2015 22:35:00 12 C 6.71 g/m*3 12 C 3.2 km/h
273 10-04-2015 22:40:00 11.8 C 6.63 g/m*3 11.8 C 3.2 km/h
274 10-04-2015 22:45:00 11.8 C 6.31 g/m*3 11.8 C 3.2 km/h
275 10-04-2015 22:50:00 11.8 C 6.74 g/m*3 11.8 C 3.2 km/h
Sensor: Nr:Datum:Temp:Abs-Feuchte:Windchill:Wind:
Aussen-T/F 276 10-04-2015 22:55:00 11.7 C 6.48 g/m*3 11.7 C 6.4 km/h
277 10-04-2015 23:00:00 11.6 C 6.55 g/m*3 11.6 C 4.8 km/h
278 10-04-2015 23:05:00 11.6 C 6.34 g/m*3 11.6 C 1.6 km/h
279 10-04-2015 23:10:00 11.6 C 6.34 g/m*3 11.6 C 3.2 km/h
280 10-04-2015 23:15:00 11.4 C 6.16 g/m*3 11.4 C 0 km/h
281 10-04-2015 23:20:00 11.3 C 6.43 g/m*3 11.3 C 1.6 km/h
282 10-04-2015 23:25:00 11.2 C 6.49 g/m*3 11.2 C 1.6 km/h
283 10-04-2015 23:30:00 11.1 C 6.65 g/m*3 11.1 C 0 km/h
284 10-04-2015 23:35:00 11 C 6.61 g/m*3 11 C 0 km/h
285 10-04-2015 23:40:00 11 C 6.41 g/m*3 11 C 0 km/h
286 10-04-2015 23:45:00 11 C 6.41 g/m*3 11 C 1.6 km/h
287 10-04-2015 23:50:00 11 C 6.61 g/m*3 11 C 1.6 km/h
288 10-04-2015 23:55:00 11 C 6.51 g/m*3 11 C 1.6 km/h

Legende:
   Min
   Max


Maximal/Minimal-Werte vom 10.04.2015 - 10.04.2015

Sensor Min Max Avg
Temp
(Aussen-T/F)
4.6 °C
10-04-2015  07:40:00
24.9 °C
10-04-2015  16:15:00
13.23 °C
Abs-Feuchte
(Aussen-T/F)
5.25 g/m*3
10-04-2015  17:45:00
9.44 g/m*3
10-04-2015  12:45:00
7.13 g/m*3
Windchill
(Aussen-T/F)
4.6 C
10-04-2015  07:40:00
24.9 C
10-04-2015  16:15:00
13.18 C

Die Daten stammen von einer Davis Vantage Pro 2 Wetter-Station und werden unter Linux mit der Software wview2wettercgi und aufbereitet. Alle Angaben erfolgen ohne Gewähr für ihre Vollständigkeit oder Richtigkeit.
Kontakt: Rainer Krienke krienke@uni-koblenz.de . Meine Webseiten an der Uni Koblenz oder privat.
Version: $Revision: 0.78 $